sensor_id;sensor_type;location;lat;lon;timestamp;pressure;altitude;pressure_sealevel;temperature;humidity
41690;BME280;27372;42.658;23.256;2023-10-19T00:00:41;93882.63;;;6.72;100.00
41690;BME280;27372;42.658;23.256;2023-10-19T00:03:10;93886.13;;;6.59;100.00
41690;BME280;27372;42.658;23.256;2023-10-19T00:05:37;93880.75;;;6.53;100.00
41690;BME280;27372;42.658;23.256;2023-10-19T00:08:04;93860.91;;;6.46;100.00
41690;BME280;27372;42.658;23.256;2023-10-19T00:10:39;93860.97;;;6.71;100.00
41690;BME280;27372;42.658;23.256;2023-10-19T00:13:06;93860.41;;;6.62;100.00
41690;BME280;27372;42.658;23.256;2023-10-19T00:15:43;93857.69;;;6.44;100.00
41690;BME280;27372;42.658;23.256;2023-10-19T00:18:17;93851.22;;;6.08;100.00
41690;BME280;27372;42.658;23.256;2023-10-19T00:20:44;93852.84;;;6.09;100.00
41690;BME280;27372;42.658;23.256;2023-10-19T00:23:25;93843.38;;;6.14;100.00
41690;BME280;27372;42.658;23.256;2023-10-19T00:26:02;93850.50;;;6.32;100.00
41690;BME280;27372;42.658;23.256;2023-10-19T00:28:45;93845.00;;;6.15;100.00
41690;BME280;27372;42.658;23.256;2023-10-19T00:31:13;93842.06;;;6.37;100.00
41690;BME280;27372;42.658;23.256;2023-10-19T00:33:39;93828.94;;;6.57;100.00
41690;BME280;27372;42.658;23.256;2023-10-19T00:36:05;93835.09;;;6.70;100.00
41690;BME280;27372;42.658;23.256;2023-10-19T00:38:35;93829.19;;;6.81;100.00
41690;BME280;27372;42.658;23.256;2023-10-19T00:41:01;93827.94;;;6.90;100.00
41690;BME280;27372;42.658;23.256;2023-10-19T00:43:37;93834.53;;;6.93;100.00
41690;BME280;27372;42.658;23.256;2023-10-19T00:46:18;93846.25;;;7.09;100.00
41690;BME280;27372;42.658;23.256;2023-10-19T00:49:01;93838.75;;;6.94;100.00
41690;BME280;27372;42.658;23.256;2023-10-19T00:51:29;93842.97;;;7.20;100.00
41690;BME280;27372;42.658;23.256;2023-10-19T00:53:57;93841.63;;;7.11;100.00
41690;BME280;27372;42.658;23.256;2023-10-19T00:56:24;93836.50;;;6.97;100.00
41690;BME280;27372;42.658;23.256;2023-10-19T00:58:53;93839.13;;;6.97;100.00
41690;BME280;27372;42.658;23.256;2023-10-19T01:01:26;93832.16;;;6.52;100.00
41690;BME280;27372;42.658;23.256;2023-10-19T01:03:53;93828.84;;;6.39;100.00
41690;BME280;27372;42.658;23.256;2023-10-19T01:06:22;93830.13;;;6.16;100.00
41690;BME280;27372;42.658;23.256;2023-10-19T01:08:48;93832.03;;;6.41;100.00
41690;BME280;27372;42.658;23.256;2023-10-19T01:11:16;93830.09;;;6.29;100.00
41690;BME280;27372;42.658;23.256;2023-10-19T01:13:46;93832.53;;;6.11;100.00
41690;BME280;27372;42.658;23.256;2023-10-19T01:16:13;93839.00;;;5.95;100.00
41690;BME280;27372;42.658;23.256;2023-10-19T01:18:50;93834.50;;;6.22;100.00
41690;BME280;27372;42.658;23.256;2023-10-19T01:21:21;93847.44;;;6.49;100.00
41690;BME280;27372;42.658;23.256;2023-10-19T01:24:08;93833.78;;;6.86;100.00
41690;BME280;27372;42.658;23.256;2023-10-19T01:26:34;93828.56;;;6.86;100.00
41690;BME280;27372;42.658;23.256;2023-10-19T01:29:03;93832.97;;;7.10;100.00
41690;BME280;27372;42.658;23.256;2023-10-19T01:31:38;93836.94;;;7.20;100.00
41690;BME280;27372;42.658;23.256;2023-10-19T01:34:16;93832.38;;;7.34;100.00
41690;BME280;27372;42.658;23.256;2023-10-19T01:36:45;93828.72;;;7.41;100.00
41690;BME280;27372;42.658;23.256;2023-10-19T01:39:15;93835.22;;;7.07;100.00
41690;BME280;27372;42.658;23.256;2023-10-19T01:41:41;93834.34;;;7.38;100.00
41690;BME280;27372;42.658;23.256;2023-10-19T01:44:07;93837.44;;;7.54;100.00
41690;BME280;27372;42.658;23.256;2023-10-19T01:46:35;93837.03;;;7.57;100.00
41690;BME280;27372;42.658;23.256;2023-10-19T01:49:03;93843.22;;;7.63;100.00
41690;BME280;27372;42.658;23.256;2023-10-19T01:51:31;93849.09;;;7.58;100.00
41690;BME280;27372;42.658;23.256;2023-10-19T01:53:58;93850.00;;;7.64;100.00
41690;BME280;27372;42.658;23.256;2023-10-19T01:56:24;93847.41;;;7.38;100.00
41690;BME280;27372;42.658;23.256;2023-10-19T01:58:50;93842.66;;;6.78;100.00
41690;BME280;27372;42.658;23.256;2023-10-19T02:01:17;93842.47;;;6.41;100.00
41690;BME280;27372;42.658;23.256;2023-10-19T02:04:04;93832.09;;;6.27;100.00
41690;BME280;27372;42.658;23.256;2023-10-19T02:06:32;93834.94;;;6.58;100.00
41690;BME280;27372;42.658;23.256;2023-10-19T02:09:10;93837.06;;;6.74;100.00
41690;BME280;27372;42.658;23.256;2023-10-19T02:11:55;93834.22;;;7.08;100.00
41690;BME280;27372;42.658;23.256;2023-10-19T02:14:22;93841.03;;;7.34;100.00
41690;BME280;27372;42.658;23.256;2023-10-19T02:16:52;93838.44;;;7.34;100.00
41690;BME280;27372;42.658;23.256;2023-10-19T02:19:22;93838.91;;;7.24;100.00
41690;BME280;27372;42.658;23.256;2023-10-19T02:21:49;93838.91;;;7.24;100.00
41690;BME280;27372;42.658;23.256;2023-10-19T02:24:16;93838.53;;;7.46;100.00
41690;BME280;27372;42.658;23.256;2023-10-19T02:26:42;93831.56;;;7.58;100.00
41690;BME280;27372;42.658;23.256;2023-10-19T02:29:08;93833.53;;;7.63;100.00
41690;BME280;27372;42.658;23.256;2023-10-19T02:31:39;93839.34;;;7.65;100.00
41690;BME280;27372;42.658;23.256;2023-10-19T02:34:10;93837.47;;;7.28;100.00
41690;BME280;27372;42.658;23.256;2023-10-19T02:36:36;93843.69;;;7.53;100.00
41690;BME280;27372;42.658;23.256;2023-10-19T02:39:10;93840.50;;;7.51;100.00
41690;BME280;27372;42.658;23.256;2023-10-19T02:41:38;93829.97;;;7.57;100.00
41690;BME280;27372;42.658;23.256;2023-10-19T02:44:08;93833.28;;;7.46;100.00
41690;BME280;27372;42.658;23.256;2023-10-19T02:46:48;93835.56;;;6.85;100.00
41690;BME280;27372;42.658;23.256;2023-10-19T02:49:17;93837.13;;;6.93;100.00
41690;BME280;27372;42.658;23.256;2023-10-19T02:51:47;93837.47;;;7.28;100.00
41690;BME280;27372;42.658;23.256;2023-10-19T02:54:14;93842.66;;;7.35;100.00
41690;BME280;27372;42.658;23.256;2023-10-19T02:56:51;93828.81;;;7.28;100.00
41690;BME280;27372;42.658;23.256;2023-10-19T02:59:19;93834.31;;;6.62;100.00
41690;BME280;27372;42.658;23.256;2023-10-19T03:01:52;93828.81;;;6.45;100.00
41690;BME280;27372;42.658;23.256;2023-10-19T03:04:17;93833.19;;;6.83;100.00
41690;BME280;27372;42.658;23.256;2023-10-19T03:06:44;93832.78;;;7.12;100.00
41690;BME280;27372;42.658;23.256;2023-10-19T03:09:09;93831.44;;;7.28;100.00
41690;BME280;27372;42.658;23.256;2023-10-19T03:11:53;93826.31;;;7.40;100.00
41690;BME280;27372;42.658;23.256;2023-10-19T03:14:28;93820.88;;;6.59;100.00
41690;BME280;27372;42.658;23.256;2023-10-19T03:16:54;93815.84;;;6.64;100.00
41690;BME280;27372;42.658;23.256;2023-10-19T03:19:23;93820.03;;;6.33;100.00
41690;BME280;27372;42.658;23.256;2023-10-19T03:21:50;93830.72;;;6.57;100.00
41690;BME280;27372;42.658;23.256;2023-10-19T03:24:16;93833.47;;;6.68;100.00
41690;BME280;27372;42.658;23.256;2023-10-19T03:27:04;93821.03;;;6.32;100.00
41690;BME280;27372;42.658;23.256;2023-10-19T03:29:48;93827.53;;;6.09;100.00
41690;BME280;27372;42.658;23.256;2023-10-19T03:32:21;93836.22;;;6.42;100.00
41690;BME280;27372;42.658;23.256;2023-10-19T03:34:51;93825.13;;;6.53;100.00
41690;BME280;27372;42.658;23.256;2023-10-19T03:37:21;93833.25;;;6.70;100.00
41690;BME280;27372;42.658;23.256;2023-10-19T03:39:47;93828.38;;;6.48;100.00
41690;BME280;27372;42.658;23.256;2023-10-19T03:42:13;93820.06;;;6.65;100.00
41690;BME280;27372;42.658;23.256;2023-10-19T03:44:39;93814.69;;;6.53;100.00
41690;BME280;27372;42.658;23.256;2023-10-19T03:47:14;93805.16;;;6.33;100.00
41690;BME280;27372;42.658;23.256;2023-10-19T03:49:45;93807.19;;;6.63;100.00
41690;BME280;27372;42.658;23.256;2023-10-19T03:52:12;93795.03;;;6.50;100.00
41690;BME280;27372;42.658;23.256;2023-10-19T03:54:38;93795.72;;;6.71;100.00
41690;BME280;27372;42.658;23.256;2023-10-19T03:57:12;93798.72;;;6.68;100.00
41690;BME280;27372;42.658;23.256;2023-10-19T03:59:38;93801.25;;;6.81;100.00
41690;BME280;27372;42.658;23.256;2023-10-19T04:02:04;93796.84;;;6.82;100.00
41690;BME280;27372;42.658;23.256;2023-10-19T04:04:39;93808.38;;;6.35;100.00
41690;BME280;27372;42.658;23.256;2023-10-19T04:07:09;93802.34;;;5.83;100.00
41690;BME280;27372;42.658;23.256;2023-10-19T04:09:43;93806.91;;;5.94;100.00
41690;BME280;27372;42.658;23.256;2023-10-19T04:12:28;93804.16;;;6.34;100.00
41690;BME280;27372;42.658;23.256;2023-10-19T04:14:54;93808.13;;;6.44;100.00
41690;BME280;27372;42.658;23.256;2023-10-19T04:17:20;93807.16;;;6.38;100.00
41690;BME280;27372;42.658;23.256;2023-10-19T04:19:47;93806.38;;;6.70;100.00
41690;BME280;27372;42.658;23.256;2023-10-19T04:22:20;93808.34;;;6.74;100.00
41690;BME280;27372;42.658;23.256;2023-10-19T04:24:51;93811.69;;;6.49;100.00
41690;BME280;27372;42.658;23.256;2023-10-19T04:27:17;93807.13;;;6.77;100.00
41690;BME280;27372;42.658;23.256;2023-10-19T04:29:46;93812.16;;;6.72;100.00
41690;BME280;27372;42.658;23.256;2023-10-19T04:32:11;93798.06;;;6.79;100.00
41690;BME280;27372;42.658;23.256;2023-10-19T04:34:39;93803.97;;;6.93;100.00
41690;BME280;27372;42.658;23.256;2023-10-19T04:37:05;93798.13;;;6.98;100.00
41690;BME280;27372;42.658;23.256;2023-10-19T04:39:32;93792.84;;;7.05;100.00
41690;BME280;27372;42.658;23.256;2023-10-19T04:41:58;93792.31;;;7.21;100.00
41690;BME280;27372;42.658;23.256;2023-10-19T04:44:25;93790.44;;;7.28;100.00
41690;BME280;27372;42.658;23.256;2023-10-19T04:46:58;93786.19;;;7.09;100.00
41690;BME280;27372;42.658;23.256;2023-10-19T04:49:35;93783.78;;;6.82;100.00
41690;BME280;27372;42.658;23.256;2023-10-19T04:52:01;93790.44;;;7.28;100.00
41690;BME280;27372;42.658;23.256;2023-10-19T04:54:28;93778.47;;;7.39;100.00
41690;BME280;27372;42.658;23.256;2023-10-19T04:56:54;93778.59;;;7.51;100.00
41690;BME280;27372;42.658;23.256;2023-10-19T04:59:20;93778.53;;;7.58;100.00
41690;BME280;27372;42.658;23.256;2023-10-19T05:01:46;93774.44;;;7.62;100.00
41690;BME280;27372;42.658;23.256;2023-10-19T05:04:11;93775.31;;;7.56;100.00
41690;BME280;27372;42.658;23.256;2023-10-19T05:06:38;93785.25;;;7.47;100.00
41690;BME280;27372;42.658;23.256;2023-10-19T05:09:03;93787.84;;;7.28;100.00
41690;BME280;27372;42.658;23.256;2023-10-19T05:11:29;93780.38;;;7.51;100.00
41690;BME280;27372;42.658;23.256;2023-10-19T05:13:54;93791.84;;;7.50;100.00
41690;BME280;27372;42.658;23.256;2023-10-19T05:16:20;93784.97;;;7.74;100.00
41690;BME280;27372;42.658;23.256;2023-10-19T05:18:45;93785.78;;;7.74;100.00
41690;BME280;27372;42.658;23.256;2023-10-19T05:21:11;93778.72;;;7.75;100.00
41690;BME280;27372;42.658;23.256;2023-10-19T05:23:37;93784.09;;;7.80;100.00
41690;BME280;27372;42.658;23.256;2023-10-19T05:26:05;93782.91;;;7.95;100.00
41690;BME280;27372;42.658;23.256;2023-10-19T05:28:32;93782.84;;;8.01;100.00
41690;BME280;27372;42.658;23.256;2023-10-19T05:30:57;93786.69;;;7.99;100.00
41690;BME280;27372;42.658;23.256;2023-10-19T05:33:24;93793.56;;;8.30;100.00
41690;BME280;27372;42.658;23.256;2023-10-19T05:35:51;93802.66;;;8.28;100.00
41690;BME280;27372;42.658;23.256;2023-10-19T05:38:17;93806.41;;;8.50;100.00
41690;BME280;27372;42.658;23.256;2023-10-19T05:40:44;93814.03;;;8.52;100.00
41690;BME280;27372;42.658;23.256;2023-10-19T05:43:10;93811.22;;;8.53;100.00
41690;BME280;27372;42.658;23.256;2023-10-19T05:45:37;93817.38;;;8.59;100.00
41690;BME280;27372;42.658;23.256;2023-10-19T05:48:02;93803.00;;;8.50;100.00
41690;BME280;27372;42.658;23.256;2023-10-19T05:50:35;93822.75;;;8.64;100.00
41690;BME280;27372;42.658;23.256;2023-10-19T05:53:01;93811.59;;;8.69;100.00
41690;BME280;27372;42.658;23.256;2023-10-19T05:55:27;93822.56;;;8.47;100.00
41690;BME280;27372;42.658;23.256;2023-10-19T05:57:54;93815.56;;;8.41;100.00
41690;BME280;27372;42.658;23.256;2023-10-19T06:00:19;93820.56;;;8.43;100.00
41690;BME280;27372;42.658;23.256;2023-10-19T06:02:47;93817.16;;;8.61;100.00
41690;BME280;27372;42.658;23.256;2023-10-19T06:05:15;93820.53;;;8.80;100.00
41690;BME280;27372;42.658;23.256;2023-10-19T06:07:41;93809.16;;;8.55;100.00
41690;BME280;27372;42.658;23.256;2023-10-19T06:10:08;93810.19;;;8.36;100.00
41690;BME280;27372;42.658;23.256;2023-10-19T06:12:36;93809.09;;;8.44;100.00
41690;BME280;27372;42.658;23.256;2023-10-19T06:15:02;93809.88;;;8.14;100.00
41690;BME280;27372;42.658;23.256;2023-10-19T06:17:28;93811.22;;;8.53;100.00
41690;BME280;27372;42.658;23.256;2023-10-19T06:19:54;93806.66;;;8.49;100.00
41690;BME280;27372;42.658;23.256;2023-10-19T06:22:20;93810.13;;;8.73;100.00
41690;BME280;27372;42.658;23.256;2023-10-19T06:24:46;93813.63;;;8.97;100.00
41690;BME280;27372;42.658;23.256;2023-10-19T06:27:11;93810.25;;;8.78;100.00
41690;BME280;27372;42.658;23.256;2023-10-19T06:29:36;93807.28;;;8.75;100.00
41690;BME280;27372;42.658;23.256;2023-10-19T06:32:02;93808.69;;;8.89;100.00
41690;BME280;27372;42.658;23.256;2023-10-19T06:34:28;93812.78;;;8.97;100.00
41690;BME280;27372;42.658;23.256;2023-10-19T06:36:53;93815.47;;;9.21;100.00
41690;BME280;27372;42.658;23.256;2023-10-19T06:39:20;93812.41;;;9.24;100.00
41690;BME280;27372;42.658;23.256;2023-10-19T06:41:46;93819.91;;;9.20;100.00
41690;BME280;27372;42.658;23.256;2023-10-19T06:44:13;93816.00;;;9.11;100.00
41690;BME280;27372;42.658;23.256;2023-10-19T06:46:38;93823.66;;;9.24;100.00
41690;BME280;27372;42.658;23.256;2023-10-19T06:49:05;93821.38;;;9.28;100.00
41690;BME280;27372;42.658;23.256;2023-10-19T06:51:30;93819.38;;;9.54;100.00
41690;BME280;27372;42.658;23.256;2023-10-19T06:53:57;93805.44;;;9.77;100.00
41690;BME280;27372;42.658;23.256;2023-10-19T06:56:23;93792.16;;;9.95;100.00
41690;BME280;27372;42.658;23.256;2023-10-19T06:58:48;93794.09;;;10.12;100.00
41690;BME280;27372;42.658;23.256;2023-10-19T07:01:14;93793.34;;;10.29;99.99
41690;BME280;27372;42.658;23.256;2023-10-19T07:03:42;93787.97;;;10.35;97.88
41690;BME280;27372;42.658;23.256;2023-10-19T07:06:07;93802.78;;;10.70;97.52
41690;BME280;27372;42.658;23.256;2023-10-19T07:08:33;93807.00;;;10.71;94.91
41690;BME280;27372;42.658;23.256;2023-10-19T07:10:58;93819.34;;;10.71;93.97
41690;BME280;27372;42.658;23.256;2023-10-19T07:13:25;93822.72;;;10.83;93.88
41690;BME280;27372;42.658;23.256;2023-10-19T07:15:51;93826.97;;;11.01;92.40
41690;BME280;27372;42.658;23.256;2023-10-19T07:18:17;93824.16;;;10.91;93.29
41690;BME280;27372;42.658;23.256;2023-10-19T07:20:42;93824.91;;;11.03;94.44
41690;BME280;27372;42.658;23.256;2023-10-19T07:23:08;93819.00;;;10.96;94.02
41690;BME280;27372;42.658;23.256;2023-10-19T07:25:44;93811.19;;;11.01;93.94
41690;BME280;27372;42.658;23.256;2023-10-19T07:28:11;93819.63;;;11.03;93.84
41690;BME280;27372;42.658;23.256;2023-10-19T07:30:38;93828.31;;;11.21;91.75
41690;BME280;27372;42.658;23.256;2023-10-19T07:33:04;93824.75;;;11.44;91.74
41690;BME280;27372;42.658;23.256;2023-10-19T07:35:34;93831.44;;;11.01;91.90
41690;BME280;27372;42.658;23.256;2023-10-19T07:38:01;93822.09;;;10.93;91.85
41690;BME280;27372;42.658;23.256;2023-10-19T07:40:28;93826.00;;;11.42;91.45
41690;BME280;27372;42.658;23.256;2023-10-19T07:42:54;93828.78;;;10.84;92.22
41690;BME280;27372;42.658;23.256;2023-10-19T07:45:20;93838.78;;;11.16;91.18
41690;BME280;27372;42.658;23.256;2023-10-19T07:47:46;93834.94;;;11.07;92.64
41690;BME280;27372;42.658;23.256;2023-10-19T07:50:13;93832.78;;;11.03;94.42
41690;BME280;27372;42.658;23.256;2023-10-19T07:52:46;93829.72;;;11.24;93.58
41690;BME280;27372;42.658;23.256;2023-10-19T07:55:13;93833.75;;;10.97;93.31
41690;BME280;27372;42.658;23.256;2023-10-19T07:57:39;93832.94;;;11.65;88.96
41690;BME280;27372;42.658;23.256;2023-10-19T08:00:08;93829.78;;;11.29;90.47
41690;BME280;27372;42.658;23.256;2023-10-19T08:02:36;93829.53;;;11.47;91.03
41690;BME280;27372;42.658;23.256;2023-10-19T08:05:03;93829.25;;;12.22;87.45
41690;BME280;27372;42.658;23.256;2023-10-19T08:07:29;93826.13;;;12.03;86.41
41690;BME280;27372;42.658;23.256;2023-10-19T08:09:55;93829.94;;;12.13;86.74
41690;BME280;27372;42.658;23.256;2023-10-19T08:12:24;93819.69;;;12.88;83.29
41690;BME280;27372;42.658;23.256;2023-10-19T08:14:49;93826.69;;;13.04;81.72
41690;BME280;27372;42.658;23.256;2023-10-19T08:17:15;93823.00;;;13.38;80.29
41690;BME280;27372;42.658;23.256;2023-10-19T08:19:40;93819.72;;;13.53;78.30
41690;BME280;27372;42.658;23.256;2023-10-19T08:22:06;93817.78;;;13.81;78.39
41690;BME280;27372;42.658;23.256;2023-10-19T08:24:32;93822.25;;;13.75;77.40
41690;BME280;27372;42.658;23.256;2023-10-19T08:27:00;93821.19;;;13.76;76.62
41690;BME280;27372;42.658;23.256;2023-10-19T08:29:26;93831.03;;;13.86;76.10
41690;BME280;27372;42.658;23.256;2023-10-19T08:31:52;93825.94;;;14.22;74.92
41690;BME280;27372;42.658;23.256;2023-10-19T08:34:17;93822.19;;;14.82;73.35
41690;BME280;27372;42.658;23.256;2023-10-19T08:36:44;93820.94;;;15.31;71.25
41690;BME280;27372;42.658;23.256;2023-10-19T08:39:10;93829.41;;;15.90;68.22
41690;BME280;27372;42.658;23.256;2023-10-19T08:41:39;93823.03;;;15.70;68.21
41690;BME280;27372;42.658;23.256;2023-10-19T08:44:06;93827.22;;;14.83;69.37
41690;BME280;27372;42.658;23.256;2023-10-19T08:46:45;93824.09;;;15.22;69.77
41690;BME280;27372;42.658;23.256;2023-10-19T08:49:16;93828.84;;;14.89;69.70
41690;BME280;27372;42.658;23.256;2023-10-19T08:51:43;93823.03;;;15.34;69.57
41690;BME280;27372;42.658;23.256;2023-10-19T08:54:10;93828.56;;;16.05;66.85
41690;BME280;27372;42.658;23.256;2023-10-19T08:56:37;93832.19;;;16.29;64.89
41690;BME280;27372;42.658;23.256;2023-10-19T08:59:02;93840.16;;;16.24;65.16
41690;BME280;27372;42.658;23.256;2023-10-19T09:01:28;93836.56;;;15.84;65.12
41690;BME280;27372;42.658;23.256;2023-10-19T09:03:57;93822.00;;;15.50;66.28
41690;BME280;27372;42.658;23.256;2023-10-19T09:06:24;93818.44;;;16.27;64.05
41690;BME280;27372;42.658;23.256;2023-10-19T09:08:49;93813.22;;;17.17;61.97
41690;BME280;27372;42.658;23.256;2023-10-19T09:11:15;93797.53;;;17.85;60.08
41690;BME280;27372;42.658;23.256;2023-10-19T09:13:45;93793.56;;;18.12;57.49
41690;BME280;27372;42.658;23.256;2023-10-19T09:16:15;93789.41;;;18.25;58.05
41690;BME280;27372;42.658;23.256;2023-10-19T09:18:41;93788.31;;;18.50;56.78
41690;BME280;27372;42.658;23.256;2023-10-19T09:21:07;93774.13;;;19.17;54.47
41690;BME280;27372;42.658;23.256;2023-10-19T09:23:34;93780.34;;;18.88;54.04
41690;BME280;27372;42.658;23.256;2023-10-19T09:26:01;93777.59;;;19.51;52.60
41690;BME280;27372;42.658;23.256;2023-10-19T09:28:28;93770.47;;;19.46;52.96
41690;BME280;27372;42.658;23.256;2023-10-19T09:30:55;93766.25;;;19.92;51.83
41690;BME280;27372;42.658;23.256;2023-10-19T09:33:22;93766.84;;;19.89;50.48
41690;BME280;27372;42.658;23.256;2023-10-19T09:35:50;93767.28;;;19.63;50.94
41690;BME280;27372;42.658;23.256;2023-10-19T09:38:18;93773.28;;;19.69;51.48
41690;BME280;27372;42.658;23.256;2023-10-19T09:40:54;93756.84;;;19.34;52.40
41690;BME280;27372;42.658;23.256;2023-10-19T09:43:45;93759.84;;;19.93;50.70
41690;BME280;27372;42.658;23.256;2023-10-19T09:46:12;93755.97;;;20.27;48.87
41690;BME280;27372;42.658;23.256;2023-10-19T09:48:41;93753.50;;;20.45;47.97
41690;BME280;27372;42.658;23.256;2023-10-19T09:51:08;93753.19;;;20.46;48.48
41690;BME280;27372;42.658;23.256;2023-10-19T09:53:36;93757.75;;;20.32;47.57
41690;BME280;27372;42.658;23.256;2023-10-19T09:56:06;93758.28;;;19.59;49.60
41690;BME280;27372;42.658;23.256;2023-10-19T09:58:40;93751.50;;;19.81;49.59
41690;BME280;27372;42.658;23.256;2023-10-19T10:01:08;93746.50;;;19.13;50.55
41690;BME280;27372;42.658;23.256;2023-10-19T10:03:51;93745.63;;;18.60;51.74
41690;BME280;27372;42.658;23.256;2023-10-19T10:09:20;93745.69;;;18.36;53.34
41690;BME280;27372;42.658;23.256;2023-10-19T10:11:49;93739.25;;;18.61;52.80
41690;BME280;27372;42.658;23.256;2023-10-19T10:14:41;93746.31;;;19.43;50.25
41690;BME280;27372;42.658;23.256;2023-10-19T10:17:17;93737.31;;;20.13;49.03
41690;BME280;27372;42.658;23.256;2023-10-19T10:19:48;93729.97;;;20.98;46.85
41690;BME280;27372;42.658;23.256;2023-10-19T10:22:13;93725.59;;;21.24;45.44
41690;BME280;27372;42.658;23.256;2023-10-19T10:24:46;93722.56;;;21.40;44.82
41690;BME280;27372;42.658;23.256;2023-10-19T10:27:16;93712.19;;;21.61;43.64
41690;BME280;27372;42.658;23.256;2023-10-19T10:29:59;93713.19;;;21.74;43.21
41690;BME280;27372;42.658;23.256;2023-10-19T10:32:46;93701.22;;;22.21;42.36
41690;BME280;27372;42.658;23.256;2023-10-19T10:38:07;93689.19;;;22.67;41.57
41690;BME280;27372;42.658;23.256;2023-10-19T10:40:48;93696.72;;;23.26;40.26
41690;BME280;27372;42.658;23.256;2023-10-19T10:43:14;93687.50;;;23.63;39.57
41690;BME280;27372;42.658;23.256;2023-10-19T10:45:40;93675.06;;;24.06;38.52
41690;BME280;27372;42.658;23.256;2023-10-19T10:48:16;93667.72;;;24.66;37.44
41690;BME280;27372;42.658;23.256;2023-10-19T10:50:42;93658.56;;;24.46;37.70
41690;BME280;27372;42.658;23.256;2023-10-19T10:53:09;93668.00;;;24.73;36.92
41690;BME280;27372;42.658;23.256;2023-10-19T10:55:36;93662.44;;;24.78;36.85
41690;BME280;27372;42.658;23.256;2023-10-19T10:58:02;93655.22;;;24.49;37.19
41690;BME280;27372;42.658;23.256;2023-10-19T11:00:27;93657.59;;;23.52;38.49
41690;BME280;27372;42.658;23.256;2023-10-19T11:03:05;93639.59;;;22.96;39.58
41690;BME280;27372;42.658;23.256;2023-10-19T11:05:33;93635.97;;;24.26;38.64
41690;BME280;27372;42.658;23.256;2023-10-19T11:08:11;93630.41;;;24.52;37.60
41690;BME280;27372;42.658;23.256;2023-10-19T11:10:42;93632.78;;;24.02;38.31
41690;BME280;27372;42.658;23.256;2023-10-19T11:13:18;93628.28;;;25.00;38.10
41690;BME280;27372;42.658;23.256;2023-10-19T11:15:54;93621.31;;;24.87;37.17
41690;BME280;27372;42.658;23.256;2023-10-19T11:18:38;93619.47;;;24.78;37.64
41690;BME280;27372;42.658;23.256;2023-10-19T11:21:13;93622.41;;;25.65;36.20
41690;BME280;27372;42.658;23.256;2023-10-19T11:23:47;93609.63;;;25.16;36.56
41690;BME280;27372;42.658;23.256;2023-10-19T11:26:19;93612.34;;;24.83;37.25
41690;BME280;27372;42.658;23.256;2023-10-19T11:28:45;93602.69;;;25.86;34.94
41690;BME280;27372;42.658;23.256;2023-10-19T11:31:18;93601.69;;;25.53;35.18
41690;BME280;27372;42.658;23.256;2023-10-19T11:33:45;93597.19;;;25.45;35.15
41690;BME280;27372;42.658;23.256;2023-10-19T11:36:12;93592.81;;;26.02;34.70
41690;BME280;27372;42.658;23.256;2023-10-19T11:38:40;93591.13;;;25.98;34.78
41690;BME280;27372;42.658;23.256;2023-10-19T11:41:05;93593.22;;;25.18;35.77
41690;BME280;27372;42.658;23.256;2023-10-19T11:43:31;93577.38;;;25.62;34.74
41690;BME280;27372;42.658;23.256;2023-10-19T11:45:57;93582.16;;;26.18;33.97
41690;BME280;27372;42.658;23.256;2023-10-19T11:48:22;93588.00;;;25.58;34.66
41690;BME280;27372;42.658;23.256;2023-10-19T11:50:47;93581.53;;;25.60;34.83
41690;BME280;27372;42.658;23.256;2023-10-19T11:53:13;93577.53;;;26.31;34.57
41690;BME280;27372;42.658;23.256;2023-10-19T11:55:38;93578.34;;;26.89;33.67
41690;BME280;27372;42.658;23.256;2023-10-19T11:58:07;93567.72;;;27.40;32.35
41690;BME280;27372;42.658;23.256;2023-10-19T12:00:36;93584.59;;;27.85;31.72
41690;BME280;27372;42.658;23.256;2023-10-19T12:03:03;93577.22;;;27.34;32.19
41690;BME280;27372;42.658;23.256;2023-10-19T12:05:29;93575.38;;;27.06;32.69
41690;BME280;27372;42.658;23.256;2023-10-19T12:07:55;93573.81;;;27.21;32.02
41690;BME280;27372;42.658;23.256;2023-10-19T12:10:22;93569.28;;;27.25;32.84
41690;BME280;27372;42.658;23.256;2023-10-19T12:12:54;93558.28;;;27.47;32.65
41690;BME280;27372;42.658;23.256;2023-10-19T12:15:21;93554.47;;;27.83;32.06
41690;BME280;27372;42.658;23.256;2023-10-19T12:17:48;93557.97;;;27.84;32.29
41690;BME280;27372;42.658;23.256;2023-10-19T12:20:15;93568.75;;;27.36;32.44
41690;BME280;27372;42.658;23.256;2023-10-19T12:22:41;93553.44;;;28.24;31.19
41690;BME280;27372;42.658;23.256;2023-10-19T12:25:07;93551.75;;;27.99;31.91
41690;BME280;27372;42.658;23.256;2023-10-19T12:27:33;93557.22;;;27.35;32.43
41690;BME280;27372;42.658;23.256;2023-10-19T12:29:58;93550.56;;;27.81;32.61
41690;BME280;27372;42.658;23.256;2023-10-19T12:32:27;93547.38;;;27.75;31.53
41690;BME280;27372;42.658;23.256;2023-10-19T12:34:52;93542.25;;;28.22;31.22
41690;BME280;27372;42.658;23.256;2023-10-19T12:37:23;93538.69;;;28.76;31.22
41690;BME280;27372;42.658;23.256;2023-10-19T12:39:49;93542.84;;;27.79;32.23
41690;BME280;27372;42.658;23.256;2023-10-19T12:42:15;93532.44;;;27.30;32.47
41690;BME280;27372;42.658;23.256;2023-10-19T12:44:41;93530.84;;;26.11;34.41
41690;BME280;27372;42.658;23.256;2023-10-19T12:47:07;93531.19;;;25.97;34.49
41690;BME280;27372;42.658;23.256;2023-10-19T12:49:41;93524.53;;;26.07;34.92
41690;BME280;27372;42.658;23.256;2023-10-19T12:52:08;93531.56;;;25.83;34.58
41690;BME280;27372;42.658;23.256;2023-10-19T12:54:37;93522.59;;;25.79;35.31
41690;BME280;27372;42.658;23.256;2023-10-19T12:57:04;93523.56;;;26.40;34.14
41690;BME280;27372;42.658;23.256;2023-10-19T12:59:33;93521.66;;;26.41;34.49
41690;BME280;27372;42.658;23.256;2023-10-19T13:01:59;93522.00;;;26.96;34.27
41690;BME280;27372;42.658;23.256;2023-10-19T13:04:28;93520.41;;;27.59;32.81